createdAt,value
2022-10-12T00:04:50.368Z,10.12
2022-10-12T00:09:52.464Z,10.09
2022-10-12T00:14:54.329Z,10.07
2022-10-12T00:19:56.182Z,10.02
2022-10-12T00:24:58.022Z,9.95
2022-10-12T00:29:59.911Z,9.92
2022-10-12T00:35:01.954Z,9.89
2022-10-12T00:40:04.417Z,9.85
2022-10-12T00:45:06.913Z,9.81
2022-10-12T00:50:14.890Z,9.79
2022-10-12T00:55:19.197Z,9.78
2022-10-12T01:00:22.678Z,9.73
2022-10-12T01:05:25.202Z,9.70
2022-10-12T01:10:27.087Z,9.68
2022-10-12T01:15:34.501Z,9.67
2022-10-12T01:20:42.484Z,9.64
2022-10-12T01:26:03.115Z,9.63
2022-10-12T01:31:20.922Z,9.58
2022-10-12T01:36:33.226Z,9.54
2022-10-12T01:41:39.897Z,9.53
2022-10-12T01:46:43.881Z,9.50
2022-10-12T01:52:07.389Z,9.51
2022-10-12T01:57:15.676Z,9.46
2022-10-12T02:02:40.184Z,9.41
2022-10-12T02:08:08.523Z,9.38
2022-10-12T02:13:13.742Z,9.35
2022-10-12T02:18:19.035Z,9.30
2022-10-12T02:23:24.562Z,9.26
2022-10-12T02:28:29.873Z,9.22
2022-10-12T02:33:37.503Z,9.18
2022-10-12T02:38:53.013Z,9.16
2022-10-12T02:43:59.898Z,9.14
2022-10-12T02:49:04.540Z,9.09
2022-10-12T02:54:06.682Z,9.06
2022-10-12T02:59:08.506Z,9.03
2022-10-12T03:04:10.557Z,9.01
2022-10-12T03:09:12.482Z,8.99
2022-10-12T03:14:15.392Z,8.96
2022-10-12T03:19:17.220Z,8.94
2022-10-12T03:24:19.308Z,8.93
2022-10-12T03:29:21.135Z,8.90
2022-10-12T03:34:23.076Z,8.85
2022-10-12T03:39:24.983Z,8.82
2022-10-12T03:44:27.052Z,8.80
2022-10-12T03:49:29.232Z,8.77
2022-10-12T03:54:31.056Z,8.75
2022-10-12T03:59:33.126Z,8.76
2022-10-12T04:04:35.602Z,8.76
2022-10-12T04:09:37.470Z,8.77
2022-10-12T04:14:39.392Z,8.80
2022-10-12T04:19:41.302Z,8.80
2022-10-12T04:24:43.958Z,8.78
2022-10-12T04:29:45.894Z,8.76
2022-10-12T04:34:47.902Z,8.74
2022-10-12T04:39:50.010Z,8.73
2022-10-12T04:44:51.987Z,8.71
2022-10-12T04:49:53.807Z,8.68
2022-10-12T04:54:55.719Z,8.65
2022-10-12T04:59:57.661Z,8.63
2022-10-12T05:04:59.612Z,8.62
2022-10-12T05:10:01.485Z,8.61
2022-10-12T05:15:03.504Z,8.61
2022-10-12T05:20:06.084Z,8.57
2022-10-12T05:25:08.893Z,8.51
2022-10-12T05:30:11.380Z,8.49
2022-10-12T05:35:13.243Z,8.49
2022-10-12T05:40:15.269Z,8.50
2022-10-12T05:45:17.228Z,8.51
2022-10-12T05:50:19.222Z,8.54
2022-10-12T05:55:21.220Z,8.59
2022-10-12T06:00:23.302Z,8.61
2022-10-12T06:05:25.770Z,8.65
2022-10-12T06:10:29.952Z,8.69
2022-10-12T06:15:32.283Z,8.76
2022-10-12T06:20:34.384Z,8.80
2022-10-12T06:25:36.291Z,8.84
2022-10-12T06:30:38.426Z,8.91
2022-10-12T06:35:40.200Z,9.00
2022-10-12T06:40:42.501Z,9.05
2022-10-12T06:45:44.353Z,9.10
2022-10-12T06:50:47.281Z,9.13
2022-10-12T06:55:49.472Z,9.18
2022-10-12T07:00:52.451Z,9.24
2022-10-12T07:05:54.517Z,9.30
2022-10-12T07:11:05.202Z,9.36
2022-10-12T07:16:08.190Z,9.47
2022-10-12T07:21:10.136Z,9.57
2022-10-12T07:26:12.192Z,9.71
2022-10-12T07:31:14.976Z,9.89
2022-10-12T07:36:21.558Z,10.08
2022-10-12T07:41:24.022Z,10.24
2022-10-12T07:46:26.115Z,10.38
2022-10-12T07:51:27.988Z,10.49
2022-10-12T07:56:31.688Z,10.65
2022-10-12T08:01:34.897Z,10.85
2022-10-12T08:06:37.183Z,11.02
2022-10-12T08:11:40.816Z,11.16
2022-10-12T08:16:44.310Z,11.32
2022-10-12T08:21:46.384Z,11.49
2022-10-12T08:26:48.391Z,11.63
2022-10-12T08:31:51.560Z,11.82
2022-10-12T08:36:53.600Z,11.98
2022-10-12T08:42:02.058Z,12.13
2022-10-12T08:47:38.877Z,12.27
2022-10-12T08:52:56.979Z,12.39
2022-10-12T08:57:59.010Z,12.51
2022-10-12T09:03:03.822Z,12.62
2022-10-12T09:08:23.943Z,12.74
2022-10-12T09:13:28.800Z,12.80
2022-10-12T09:18:37.072Z,12.86
2022-10-12T09:23:42.726Z,12.96
2022-10-12T09:29:20.392Z,13.02
2022-10-12T09:34:24.675Z,13.07
2022-10-12T09:39:34.010Z,13.13
2022-10-12T09:44:40.337Z,13.18
2022-10-12T09:49:43.385Z,13.25
2022-10-12T09:55:16.361Z,13.38
2022-10-12T10:00:36.090Z,13.40
2022-10-12T10:05:39.203Z,13.41
2022-10-12T10:10:56.511Z,13.44
2022-10-12T10:16:05.940Z,13.52
2022-10-12T10:21:13.272Z,13.61
2022-10-12T10:31:29.631Z,13.77
2022-10-12T10:36:34.697Z,13.85
2022-10-12T10:41:39.684Z,13.91
2022-10-12T10:46:45.160Z,13.97
2022-10-12T10:51:51.704Z,14.02
2022-10-12T10:56:59.136Z,14.07
2022-10-12T11:02:10.135Z,14.11
2022-10-12T11:07:42.609Z,14.18
2022-10-12T11:12:49.885Z,14.23
2022-10-12T11:18:03.654Z,14.30
2022-10-12T11:23:19.391Z,14.32
2022-10-12T11:28:22.886Z,14.39
2022-10-12T11:33:38.615Z,14.45
2022-10-12T11:38:44.920Z,14.50
2022-10-12T11:43:52.883Z,14.57
2022-10-12T11:49:29.321Z,14.60
2022-10-12T11:54:40.148Z,14.60
2022-10-12T11:59:41.906Z,14.63
2022-10-12T12:04:47.207Z,14.65
2022-10-12T12:09:51.019Z,14.65
2022-10-12T12:14:53.414Z,14.68
2022-10-12T12:20:01.068Z,14.70
2022-10-12T12:25:10.806Z,14.69
2022-10-12T12:30:18.361Z,14.70
2022-10-12T12:35:32.231Z,14.71
2022-10-12T12:40:35.322Z,14.70
2022-10-12T12:45:56.543Z,14.69
2022-10-12T12:51:01.799Z,14.70
2022-10-12T12:56:24.122Z,14.72
2022-10-12T13:02:11.037Z,14.74
2022-10-12T13:07:15.583Z,14.75
2022-10-12T13:12:35.577Z,14.76
2022-10-12T13:17:59.491Z,14.78
2022-10-12T13:23:06.259Z,14.79
2022-10-12T13:28:41.296Z,14.81
2022-10-12T13:33:56.617Z,14.82
2022-10-12T13:39:20.746Z,14.88
2022-10-12T13:44:31.061Z,14.86
2022-10-12T13:49:43.688Z,14.85
2022-10-12T13:54:48.748Z,14.85
2022-10-12T13:59:57.723Z,14.86
2022-10-12T14:05:02.698Z,14.86
2022-10-12T14:10:16.471Z,14.87
2022-10-12T14:15:19.795Z,14.88
2022-10-12T14:20:31.131Z,14.91
2022-10-12T14:25:33.369Z,14.90
2022-10-12T14:30:40.950Z,14.90
2022-10-12T14:35:47.966Z,14.90
2022-10-12T14:40:49.804Z,14.88
2022-10-12T14:45:52.156Z,14.86
2022-10-12T14:50:54.362Z,14.83
2022-10-12T14:55:56.284Z,14.79
2022-10-12T15:00:58.440Z,14.76
2022-10-12T15:06:00.423Z,14.73
2022-10-12T15:11:02.263Z,14.66
2022-10-12T15:16:10.325Z,14.63
2022-10-12T15:21:12.221Z,14.57
2022-10-12T15:26:16.781Z,14.51
2022-10-12T15:31:19.302Z,14.45
2022-10-12T15:36:21.252Z,14.39
2022-10-12T15:41:27.178Z,14.29
2022-10-12T15:46:29.063Z,14.19
2022-10-12T15:51:34.411Z,14.10
2022-10-12T15:56:36.861Z,14.01
2022-10-12T16:01:40.001Z,13.94
2022-10-12T16:06:41.945Z,13.84
2022-10-12T16:11:43.831Z,13.77
2022-10-12T16:16:45.752Z,13.68
2022-10-12T16:21:47.596Z,13.60
2022-10-12T16:26:50.064Z,13.50
2022-10-12T16:31:51.984Z,13.42
2022-10-12T16:36:53.956Z,13.31
2022-10-12T16:41:55.890Z,13.20
2022-10-12T16:46:58.351Z,13.12
2022-10-12T16:52:00.336Z,13.05
2022-10-12T16:57:02.330Z,12.98
2022-10-12T17:02:05.200Z,12.91
2022-10-12T17:07:07.241Z,12.84
2022-10-12T17:12:09.371Z,12.78
2022-10-12T17:17:11.394Z,12.74
2022-10-12T17:22:14.561Z,12.71
2022-10-12T17:27:17.067Z,12.67
2022-10-12T17:32:19.363Z,12.64
2022-10-12T17:37:22.047Z,12.62
2022-10-12T17:42:24.915Z,12.60
2022-10-12T17:47:26.738Z,12.55
2022-10-12T17:52:28.615Z,12.52
2022-10-12T17:57:30.513Z,12.47
2022-10-12T18:02:32.334Z,12.42
2022-10-12T18:07:34.171Z,12.35
2022-10-12T18:12:36.021Z,12.29
2022-10-12T18:17:37.903Z,12.24
2022-10-12T18:22:39.686Z,12.19
2022-10-12T18:27:42.243Z,12.19
2022-10-12T18:32:44.332Z,12.19
2022-10-12T18:37:46.167Z,12.18
2022-10-12T18:42:48.152Z,12.20
2022-10-12T18:47:50.084Z,12.20
2022-10-12T18:52:54.682Z,12.19
2022-10-12T18:57:56.502Z,12.15
2022-10-12T19:02:58.577Z,12.11
2022-10-12T19:08:00.382Z,12.05
2022-10-12T19:13:02.212Z,12.00
2022-10-12T19:18:04.945Z,11.99
2022-10-12T19:23:06.811Z,12.00
2022-10-12T19:28:08.662Z,12.03
2022-10-12T19:33:10.636Z,12.03
2022-10-12T19:38:12.927Z,12.06
2022-10-12T19:43:14.745Z,12.06
2022-10-12T19:48:17.911Z,12.07
2022-10-12T19:53:19.736Z,12.07
2022-10-12T19:58:21.706Z,12.06
2022-10-12T20:03:23.423Z,12.07
2022-10-12T20:08:25.494Z,12.07
2022-10-12T20:13:29.351Z,12.09
2022-10-12T20:18:31.897Z,12.09
2022-10-12T20:23:38.898Z,12.10
2022-10-12T20:28:41.785Z,12.07
2022-10-12T20:33:44.340Z,12.04
2022-10-12T20:38:46.062Z,12.03
2022-10-12T20:43:48.397Z,12.02
2022-10-12T20:48:52.537Z,12.00
2022-10-12T20:54:01.596Z,11.97
2022-10-12T20:59:03.451Z,11.95
2022-10-12T21:04:05.267Z,11.91
2022-10-12T21:09:07.355Z,11.89
2022-10-12T21:14:12.232Z,11.88
2022-10-12T21:19:15.943Z,11.88
2022-10-12T21:24:18.386Z,11.84
2022-10-12T21:29:20.543Z,11.84
2022-10-12T21:34:22.577Z,11.83
2022-10-12T21:39:24.411Z,11.83
2022-10-12T21:44:26.241Z,11.79
2022-10-12T21:49:28.070Z,11.77
2022-10-12T21:54:29.873Z,11.72
2022-10-12T21:59:31.690Z,11.68
2022-10-12T22:04:33.481Z,11.62
2022-10-12T22:09:35.679Z,11.60
2022-10-12T22:14:37.467Z,11.55
2022-10-12T22:19:39.421Z,11.50
2022-10-12T22:24:41.213Z,11.47
2022-10-12T22:29:43.109Z,11.45
2022-10-12T22:34:44.949Z,11.48
2022-10-12T22:39:47.012Z,11.51
2022-10-12T22:44:48.795Z,11.54
2022-10-12T22:49:50.556Z,11.54
2022-10-12T22:54:52.654Z,11.54
2022-10-12T22:59:54.491Z,11.54
2022-10-12T23:04:56.513Z,11.53
2022-10-12T23:09:58.278Z,11.51
2022-10-12T23:15:00.162Z,11.54
2022-10-12T23:20:02.116Z,11.62
2022-10-12T23:25:04.163Z,11.72
2022-10-12T23:30:06.648Z,11.83
2022-10-12T23:35:08.544Z,11.97
2022-10-12T23:40:10.964Z,12.08
2022-10-12T23:45:12.741Z,12.19
2022-10-12T23:50:14.647Z,12.25
2022-10-12T23:55:16.615Z,12.32
